createdAt,value
2023-02-23T00:01:01.381Z,96857.84
2023-02-23T00:03:04.400Z,96857.13
2023-02-23T00:05:09.193Z,96853.66
2023-02-23T00:07:11.761Z,96851.91
2023-02-23T00:09:22.959Z,96851.06
2023-02-23T00:11:27.034Z,96855.25
2023-02-23T00:13:29.883Z,96855.41
2023-02-23T00:15:32.383Z,96851.19
2023-02-23T00:17:36.668Z,96854.59
2023-02-23T00:19:39.258Z,96846.72
2023-02-23T00:21:43.236Z,96849.41
2023-02-23T00:23:50.254Z,96846.69
2023-02-23T00:25:52.828Z,96844.34
2023-02-23T00:27:55.396Z,96844.41
2023-02-23T00:29:58.064Z,96847.84
2023-02-23T00:32:00.716Z,96848.69
2023-02-23T00:34:04.463Z,96841.78
2023-02-23T00:36:09.311Z,96847.84
2023-02-23T00:38:13.938Z,96841.88
2023-02-23T00:40:20.729Z,96847.13
2023-02-23T00:42:23.662Z,96843.69
2023-02-23T00:44:26.204Z,96841.00
2023-02-23T00:46:30.573Z,96842.75
2023-02-23T00:48:33.831Z,96845.31
2023-02-23T00:50:38.942Z,96844.47
2023-02-23T00:52:42.520Z,96839.25
2023-02-23T00:54:46.454Z,96843.47
2023-02-23T00:56:49.418Z,96842.72
2023-02-23T00:58:52.076Z,96845.19
2023-02-23T01:00:54.977Z,96836.44
2023-02-23T01:02:57.676Z,96842.50
2023-02-23T01:05:00.204Z,96840.78
2023-02-23T01:07:06.342Z,96845.06
2023-02-23T01:09:10.920Z,96839.00
2023-02-23T01:11:16.532Z,96839.00
2023-02-23T01:13:20.037Z,96841.59
2023-02-23T01:15:22.595Z,96841.59
2023-02-23T01:17:25.173Z,96838.22
2023-02-23T01:19:28.522Z,96834.91
2023-02-23T01:21:33.622Z,96835.00
2023-02-23T01:23:36.951Z,96838.59
2023-02-23T01:25:40.360Z,96830.78
2023-02-23T01:27:44.689Z,96834.28
2023-02-23T01:29:47.216Z,96829.94
2023-02-23T01:31:52.083Z,96823.06
2023-02-23T01:33:55.380Z,96828.25
2023-02-23T01:35:59.200Z,96826.47
2023-02-23T01:38:01.956Z,96823.06
2023-02-23T01:40:10.623Z,96823.13
2023-02-23T01:42:14.570Z,96823.06
2023-02-23T01:44:54.542Z,96826.63
2023-02-23T01:46:58.523Z,96825.81
2023-02-23T01:49:01.707Z,96827.59
2023-02-23T01:51:09.061Z,96825.88
2023-02-23T01:53:11.900Z,96819.00
2023-02-23T01:55:22.862Z,96820.75
2023-02-23T01:57:26.953Z,96820.75
2023-02-23T01:59:34.955Z,96822.50
2023-02-23T02:01:38.555Z,96822.50
2023-02-23T02:03:47.842Z,96814.69
2023-02-23T02:05:51.568Z,96813.88
2023-02-23T02:07:58.938Z,96822.44
2023-02-23T02:10:33.839Z,96819.06
2023-02-23T02:12:36.475Z,96816.47
2023-02-23T02:14:39.712Z,96815.53
2023-02-23T02:17:02.183Z,96811.25
2023-02-23T02:19:49.686Z,96813.88
2023-02-23T02:22:14.331Z,96814.88
2023-02-23T02:25:02.148Z,96815.84
2023-02-23T02:27:19.201Z,96813.31
2023-02-23T02:29:50.835Z,96815.09
2023-02-23T02:32:27.257Z,96807.28
2023-02-23T02:34:47.950Z,96811.56
2023-02-23T02:37:18.223Z,96810.69
2023-02-23T02:39:36.579Z,96809.81
2023-02-23T02:41:51.191Z,96808.59
2023-02-23T02:44:01.029Z,96813.97
2023-02-23T02:46:11.244Z,96806.28
2023-02-23T02:48:21.845Z,96809.81
2023-02-23T02:50:31.397Z,96810.69
2023-02-23T02:52:40.180Z,96808.09
2023-02-23T02:54:48.958Z,96810.69
2023-02-23T02:56:57.632Z,96807.28
2023-02-23T02:59:01.535Z,96806.50
2023-02-23T03:01:27.227Z,96804.72
2023-02-23T03:03:50.692Z,96809.88
2023-02-23T03:06:13.433Z,96809.56
2023-02-23T03:08:40.847Z,96806.34
2023-02-23T03:11:06.481Z,96803.69
2023-02-23T03:13:37.308Z,96801.16
2023-02-23T03:16:10.289Z,96807.28
2023-02-23T03:18:44.605Z,96803.94
2023-02-23T03:21:12.557Z,96801.59
2023-02-23T03:23:39.164Z,96814.31
2023-02-23T03:26:09.969Z,96803.44
2023-02-23T03:28:35.204Z,96805.50
2023-02-23T03:31:04.726Z,96805.25
2023-02-23T03:33:31.002Z,96803.69
2023-02-23T03:35:58.686Z,96807.94
2023-02-23T03:38:24.570Z,96803.94
2023-02-23T03:40:50.990Z,96809.88
2023-02-23T03:43:15.007Z,96802.59
2023-02-23T03:45:39.651Z,96803.44
2023-02-23T03:48:03.267Z,96808.03
2023-02-23T03:50:28.467Z,96808.88
2023-02-23T03:52:54.707Z,96810.47
2023-02-23T03:55:18.189Z,96812.22
2023-02-23T03:57:43.281Z,96809.75
2023-02-23T04:00:10.962Z,96808.09
2023-02-23T04:02:33.600Z,96807.38
2023-02-23T04:04:54.920Z,96805.63
2023-02-23T04:07:18.207Z,96812.78
2023-02-23T04:09:38.138Z,96811.03
2023-02-23T04:12:05.586Z,96808.53
2023-02-23T04:14:18.388Z,96810.31
2023-02-23T04:16:20.107Z,96812.06
2023-02-23T04:18:24.472Z,96810.53
2023-02-23T04:20:27.900Z,96808.78
2023-02-23T04:22:30.470Z,96807.88
2023-02-23T04:24:33.126Z,96811.13
2023-02-23T04:26:35.683Z,96813.78
2023-02-23T04:28:38.262Z,96804.25
2023-02-23T04:30:42.449Z,96812.19
2023-02-23T04:32:46.105Z,96815.69
2023-02-23T04:34:51.384Z,96806.00
2023-02-23T04:36:53.973Z,96804.44
2023-02-23T04:38:56.626Z,96808.78
2023-02-23T04:41:01.078Z,96807.16
2023-02-23T04:43:03.667Z,96808.91
2023-02-23T04:45:07.182Z,96808.13
2023-02-23T04:47:11.179Z,96816.78
2023-02-23T04:49:13.714Z,96813.19
2023-02-23T04:51:16.643Z,96808.91
2023-02-23T04:53:19.442Z,96817.31
2023-02-23T04:55:24.048Z,96814.78
2023-02-23T04:57:26.876Z,96817.38
2023-02-23T04:59:29.431Z,96815.75
2023-02-23T05:01:32.619Z,96818.28
2023-02-23T05:03:36.558Z,96816.47
2023-02-23T05:05:39.497Z,96814.78
2023-02-23T05:07:42.068Z,96818.19
2023-02-23T05:09:44.631Z,96813.69
2023-02-23T05:11:47.323Z,96810.25
2023-02-23T05:13:49.869Z,96808.50
2023-02-23T05:15:57.587Z,96811.78
2023-02-23T05:18:00.168Z,96812.78
2023-02-23T05:20:04.245Z,96812.78
2023-02-23T05:22:07.117Z,96808.31
2023-02-23T05:24:10.040Z,96811.75
2023-02-23T05:26:14.577Z,96807.31
2023-02-23T05:28:17.130Z,96808.09
2023-02-23T05:30:19.797Z,96812.41
2023-02-23T05:32:22.384Z,96814.09
2023-02-23T05:34:24.988Z,96811.63
2023-02-23T05:36:28.932Z,96808.97
2023-02-23T05:38:31.518Z,96813.31
2023-02-23T05:40:34.259Z,96810.63
2023-02-23T05:42:38.436Z,96817.50
2023-02-23T05:44:41.109Z,96807.94
2023-02-23T05:46:43.675Z,96806.16
2023-02-23T05:48:46.416Z,96808.66
2023-02-23T05:50:49.533Z,96811.19
2023-02-23T05:52:53.791Z,96805.13
2023-02-23T05:54:56.662Z,96806.88
2023-02-23T05:57:01.678Z,96813.00
2023-02-23T05:59:04.813Z,96810.41
2023-02-23T06:01:07.375Z,96813.06
2023-02-23T06:03:09.898Z,96810.47
2023-02-23T06:05:13.524Z,96808.69
2023-02-23T06:07:16.176Z,96820.88
2023-02-23T06:09:20.091Z,96816.50
2023-02-23T06:11:22.985Z,96821.69
2023-02-23T06:13:25.510Z,96816.56
2023-02-23T06:15:29.918Z,96816.63
2023-02-23T06:17:32.648Z,96819.22
2023-02-23T06:19:35.343Z,96821.03
2023-02-23T06:21:38.182Z,96824.56
2023-02-23T06:23:40.752Z,96829.78
2023-02-23T06:25:45.129Z,96829.72
2023-02-23T06:27:47.887Z,96834.91
2023-02-23T06:29:50.443Z,96833.22
2023-02-23T06:31:53.268Z,96840.19
2023-02-23T06:33:56.581Z,96834.91
2023-02-23T06:36:00.504Z,96841.88
2023-02-23T06:38:03.647Z,96839.22
2023-02-23T06:40:07.753Z,96835.78
2023-02-23T06:42:11.658Z,96838.44
2023-02-23T06:44:14.423Z,96840.13
2023-02-23T06:46:17.043Z,96855.66
2023-02-23T06:48:19.596Z,96842.59
2023-02-23T06:50:22.645Z,96844.47
2023-02-23T06:52:25.706Z,96846.25
2023-02-23T06:54:28.269Z,96853.19
2023-02-23T06:56:30.839Z,96846.31
2023-02-23T06:58:34.724Z,96849.81
2023-02-23T07:00:37.398Z,96855.00
2023-02-23T07:02:40.280Z,96858.53
2023-02-23T07:04:43.010Z,96861.94
2023-02-23T07:06:45.548Z,96865.34
2023-02-23T07:08:48.073Z,96865.28
2023-02-23T07:10:50.695Z,96872.22
2023-02-23T07:12:54.577Z,96872.16
2023-02-23T07:14:58.536Z,96878.28
2023-02-23T07:17:01.052Z,96876.50
2023-02-23T07:19:04.742Z,96876.50
2023-02-23T07:21:07.544Z,96873.88
2023-02-23T07:23:10.081Z,96878.28
2023-02-23T07:25:13.669Z,96874.81
2023-02-23T07:27:16.168Z,96873.94
2023-02-23T07:29:18.799Z,96880.00
2023-02-23T07:31:22.973Z,96876.56
2023-02-23T07:33:25.918Z,96877.94
2023-02-23T07:35:28.425Z,96881.41
2023-02-23T07:37:30.984Z,96886.75
2023-02-23T07:39:33.562Z,96887.28
2023-02-23T07:41:36.104Z,96880.41
2023-02-23T07:43:41.261Z,96892.81
2023-02-23T07:45:46.217Z,96895.78
2023-02-23T07:47:50.479Z,96888.16
2023-02-23T07:49:53.024Z,96886.22
2023-02-23T07:51:55.603Z,96884.41
2023-02-23T07:53:58.203Z,96890.16
2023-02-23T07:56:03.504Z,96886.00
2023-02-23T07:58:06.490Z,96882.81
2023-02-23T08:00:10.329Z,96881.56
2023-02-23T08:02:14.385Z,96882.53
2023-02-23T08:04:18.366Z,96886.13
2023-02-23T08:06:21.152Z,96887.06
2023-02-23T08:08:23.747Z,96886.06
2023-02-23T08:10:26.498Z,96886.97
2023-02-23T08:12:29.117Z,96884.31
2023-02-23T08:14:31.677Z,96889.50
2023-02-23T08:16:34.871Z,96887.69
2023-02-23T08:18:37.469Z,96885.84
2023-02-23T08:20:41.383Z,96885.50
2023-02-23T08:22:49.805Z,96880.47
2023-02-23T08:24:52.596Z,96880.34
2023-02-23T08:26:55.182Z,96887.88
2023-02-23T08:28:57.781Z,96883.69
2023-02-23T08:31:02.879Z,96885.97
2023-02-23T08:33:05.600Z,96890.19
2023-02-23T08:35:08.861Z,96886.81
2023-02-23T08:37:13.020Z,96890.13
2023-02-23T08:39:16.547Z,96887.53
2023-02-23T08:41:19.549Z,96879.78
2023-02-23T08:43:22.313Z,96874.06
2023-02-23T08:45:24.914Z,96886.84
2023-02-23T08:47:27.456Z,96880.94
2023-02-23T08:49:31.172Z,96884.34
2023-02-23T08:51:34.926Z,96884.47
2023-02-23T08:53:38.798Z,96890.47
2023-02-23T08:55:41.346Z,96887.78
2023-02-23T08:57:43.944Z,96891.19
2023-02-23T08:59:46.482Z,96886.03
2023-02-23T09:01:49.075Z,96892.94
2023-02-23T09:03:51.626Z,96889.44
2023-02-23T09:05:54.364Z,96895.47
2023-02-23T09:07:56.937Z,96891.13
2023-02-23T09:10:00.819Z,96899.72
2023-02-23T09:12:03.426Z,96900.69
2023-02-23T09:14:05.978Z,96899.06
2023-02-23T09:16:08.974Z,96899.06
2023-02-23T09:18:14.908Z,96901.63
2023-02-23T09:20:18.522Z,96907.69
2023-02-23T09:22:21.092Z,96910.28
2023-02-23T09:25:22.673Z,96906.75
2023-02-23T09:30:48.674Z,96916.22
2023-02-23T09:32:51.962Z,96918.75
2023-02-23T09:34:54.595Z,96914.97
2023-02-23T09:36:57.138Z,96921.88
2023-02-23T09:38:59.898Z,96915.81
2023-02-23T09:41:02.476Z,96914.97
2023-02-23T09:43:12.600Z,96912.16
2023-02-23T09:45:24.662Z,96909.56
2023-02-23T09:47:40.513Z,96916.22
2023-02-23T09:49:46.481Z,96910.81
2023-02-23T09:55:13.513Z,96906.72
2023-02-23T09:57:20.366Z,96905.84
2023-02-23T09:59:25.032Z,96914.78
2023-02-23T10:01:53.738Z,96914.84
2023-02-23T10:04:06.050Z,96915.34
2023-02-23T10:06:13.504Z,96917.06
2023-02-23T10:08:45.278Z,96926.66
2023-02-23T10:10:50.524Z,96911.78
2023-02-23T10:13:04.345Z,96912.56
2023-02-23T10:15:24.514Z,96914.34
2023-02-23T10:17:37.793Z,96918.09
2023-02-23T10:19:49.706Z,96908.50
2023-02-23T10:21:55.348Z,96913.72
2023-02-23T10:24:05.486Z,96915.06
2023-02-23T10:26:14.484Z,96910.47
2023-02-23T10:28:20.185Z,96907.94
2023-02-23T10:30:25.158Z,96908.94
2023-02-23T10:32:39.326Z,96909.78
2023-02-23T10:34:45.857Z,96909.94
2023-02-23T10:36:53.547Z,96910.84
2023-02-23T10:38:56.127Z,96907.47
2023-02-23T10:40:58.974Z,96908.25
2023-02-23T10:43:02.724Z,96907.97
2023-02-23T10:45:23.011Z,96899.31
2023-02-23T10:47:28.612Z,96898.38
2023-02-23T10:49:41.800Z,96901.75
2023-02-23T10:51:46.553Z,96898.19
2023-02-23T10:53:49.165Z,96896.31
2023-02-23T10:56:03.845Z,96890.25
2023-02-23T10:58:16.926Z,96890.81
2023-02-23T11:00:32.916Z,96886.72
2023-02-23T11:02:37.131Z,96882.44
2023-02-23T11:04:53.034Z,96886.72
2023-02-23T11:07:08.984Z,96876.19
2023-02-23T11:09:33.128Z,96875.16
2023-02-23T11:11:57.425Z,96882.75
2023-02-23T11:13:59.986Z,96882.41
2023-02-23T11:16:05.143Z,96878.06
2023-02-23T11:18:08.199Z,96883.44
2023-02-23T11:20:25.641Z,96872.75
2023-02-23T11:22:33.121Z,96870.72
2023-02-23T11:24:39.064Z,96873.41
2023-02-23T11:26:44.264Z,96868.50
2023-02-23T11:28:47.019Z,96866.16
2023-02-23T11:30:50.629Z,96861.00
2023-02-23T11:32:55.572Z,96857.25
2023-02-23T11:35:27.458Z,96856.47
2023-02-23T11:37:32.484Z,96858.22
2023-02-23T11:42:54.624Z,96845.09
2023-02-23T11:45:04.750Z,96845.09
2023-02-23T11:47:14.903Z,96838.09
2023-02-23T11:49:59.480Z,96843.13
2023-02-23T11:52:02.389Z,96835.22
2023-02-23T11:54:07.258Z,96835.91
2023-02-23T11:56:11.180Z,96826.19
2023-02-23T11:58:24.924Z,96828.75
2023-02-23T12:00:28.739Z,96828.59
2023-02-23T12:02:33.283Z,96823.44
2023-02-23T12:04:38.124Z,96825.97
2023-02-23T12:06:43.160Z,96821.56
2023-02-23T12:08:51.577Z,96821.28
2023-02-23T12:10:58.875Z,96817.50
2023-02-23T12:13:10.739Z,96823.81
2023-02-23T12:15:16.735Z,96823.13
2023-02-23T12:17:24.836Z,96822.13
2023-02-23T12:19:32.654Z,96818.66
2023-02-23T12:21:40.237Z,96822.13
2023-02-23T12:23:49.934Z,96824.75
2023-02-23T12:25:56.831Z,96821.88
2023-02-23T12:28:18.077Z,96810.56
2023-02-23T12:30:28.202Z,96819.19
2023-02-23T12:32:45.137Z,96809.75
2023-02-23T12:34:53.229Z,96815.56
2023-02-23T12:37:01.082Z,96815.56
2023-02-23T12:39:17.870Z,96813.63
2023-02-23T12:41:31.351Z,96808.16
2023-02-23T12:43:40.973Z,96806.63
2023-02-23T12:45:48.411Z,96805.03
2023-02-23T12:48:00.581Z,96806.88
2023-02-23T12:50:11.223Z,96806.03
2023-02-23T12:52:19.302Z,96807.03
2023-02-23T12:54:23.462Z,96800.78
2023-02-23T12:56:36.431Z,96805.25
2023-02-23T12:58:45.934Z,96800.88
2023-02-23T13:04:27.431Z,96788.84
2023-02-23T13:06:36.660Z,96788.59
2023-02-23T13:08:55.692Z,96795.69
2023-02-23T13:11:07.963Z,96794.81
2023-02-23T13:13:24.870Z,96786.47
2023-02-23T13:15:37.888Z,96777.06
2023-02-23T13:17:48.723Z,96785.66
2023-02-23T13:19:54.671Z,96788.34
2023-02-23T13:22:02.990Z,96788.94
2023-02-23T13:24:10.922Z,96788.69
2023-02-23T13:26:25.441Z,96789.75
2023-02-23T13:28:43.199Z,96791.69
2023-02-23T13:30:47.539Z,96792.63
2023-02-23T13:32:50.552Z,96792.72
2023-02-23T13:34:57.241Z,96791.97
2023-02-23T13:37:03.912Z,96796.31
2023-02-23T13:39:29.703Z,96792.88
2023-02-23T13:41:39.617Z,96792.03
2023-02-23T13:43:49.678Z,96792.88
2023-02-23T13:46:11.856Z,96785.88
2023-02-23T13:48:26.352Z,96789.41
2023-02-23T13:50:35.213Z,96789.41
2023-02-23T13:52:40.548Z,96785.69
2023-02-23T13:54:53.327Z,96786.72
2023-02-23T13:56:59.407Z,96787.63
2023-02-23T13:59:06.143Z,96785.97
2023-02-23T14:01:16.345Z,96781.50
2023-02-23T14:03:24.633Z,96779.78
2023-02-23T14:05:31.597Z,96777.63
2023-02-23T14:07:40.686Z,96778.53
2023-02-23T14:09:52.123Z,96774.25
2023-02-23T14:12:16.908Z,96776.88
2023-02-23T14:14:45.816Z,96777.63
2023-02-23T14:17:11.958Z,96774.88
2023-02-23T14:19:36.186Z,96774.53
2023-02-23T14:21:46.638Z,96772.94
2023-02-23T14:24:02.858Z,96769.81
2023-02-23T14:26:15.689Z,96772.16
2023-02-23T14:28:29.885Z,96770.53
2023-02-23T14:30:49.768Z,96766.34
2023-02-23T14:32:53.784Z,96770.50
2023-02-23T14:34:58.891Z,96767.94
2023-02-23T14:37:14.961Z,96763.63
2023-02-23T14:39:23.396Z,96768.03
2023-02-23T14:41:29.301Z,96767.19
2023-02-23T14:43:44.186Z,96768.09
2023-02-23T14:45:47.629Z,96768.19
2023-02-23T14:47:52.112Z,96765.75
2023-02-23T14:49:57.980Z,96767.59
2023-02-23T14:52:07.190Z,96772.06
2023-02-23T14:54:23.031Z,96774.88
2023-02-23T14:56:38.718Z,96774.09
2023-02-23T14:58:53.865Z,96766.44
2023-02-23T15:00:56.453Z,96773.50
2023-02-23T15:03:01.250Z,96771.00
2023-02-23T15:05:15.973Z,96773.78
2023-02-23T15:07:25.083Z,96773.78
2023-02-23T15:09:34.540Z,96773.00
2023-02-23T15:11:38.050Z,96773.09
2023-02-23T15:13:43.686Z,96776.63
2023-02-23T15:15:49.664Z,96779.31
2023-02-23T15:17:55.593Z,96774.28
2023-02-23T15:20:14.663Z,96775.19
2023-02-23T15:22:26.170Z,96772.66
2023-02-23T15:24:33.443Z,96775.25
2023-02-23T15:26:38.124Z,96773.50
2023-02-23T15:28:41.585Z,96774.44
2023-02-23T15:30:48.817Z,96777.06
2023-02-23T15:33:00.647Z,96777.75
2023-02-23T15:35:04.662Z,96779.00
2023-02-23T15:37:12.718Z,96776.28
2023-02-23T15:39:18.527Z,96780.41
2023-02-23T15:41:26.635Z,96785.81
2023-02-23T15:43:30.503Z,96780.75
2023-02-23T15:45:40.189Z,96778.22
2023-02-23T15:47:44.394Z,96784.31
2023-02-23T15:49:47.425Z,96787.84
2023-02-23T15:51:52.351Z,96783.53
2023-02-23T15:53:55.379Z,96791.25
2023-02-23T15:56:02.902Z,96796.19
2023-02-23T15:58:15.723Z,96785.91
2023-02-23T16:00:27.167Z,96790.22
2023-02-23T16:02:30.912Z,96792.16
2023-02-23T16:04:36.714Z,96785.22
2023-02-23T16:06:41.875Z,96792.28
2023-02-23T16:08:57.730Z,96793.50
2023-02-23T16:11:11.833Z,96797.78
2023-02-23T16:13:17.786Z,96790.03
2023-02-23T16:15:26.316Z,96798.84
2023-02-23T16:17:35.134Z,96791.09
2023-02-23T16:19:42.346Z,96797.28
2023-02-23T16:21:50.315Z,96785.09
2023-02-23T16:23:55.377Z,96787.88
2023-02-23T16:26:01.991Z,96792.44
2023-02-23T16:28:14.071Z,96791.75
2023-02-23T16:30:23.144Z,96788.44
2023-02-23T16:32:25.877Z,96793.75
2023-02-23T16:34:37.136Z,96792.09
2023-02-23T16:36:41.076Z,96794.78
2023-02-23T16:38:57.705Z,96795.78
2023-02-23T16:41:00.445Z,96795.00
2023-02-23T16:43:03.063Z,96795.09
2023-02-23T16:45:07.912Z,96783.84
2023-02-23T16:47:36.428Z,96796.19
2023-02-23T16:49:39.208Z,96790.16
2023-02-23T16:51:43.091Z,96790.28
2023-02-23T16:53:46.200Z,96793.84
2023-02-23T16:55:53.388Z,96792.13
2023-02-23T16:57:58.753Z,96799.16
2023-02-23T17:00:01.321Z,96807.06
2023-02-23T17:02:09.706Z,96794.81
2023-02-23T17:04:15.289Z,96801.00
2023-02-23T17:06:18.099Z,96804.59
2023-02-23T17:08:22.320Z,96808.13
2023-02-23T17:10:26.803Z,96802.13
2023-02-23T17:12:29.412Z,96803.00
2023-02-23T17:14:33.048Z,96809.22
2023-02-23T17:16:35.667Z,96806.59
2023-02-23T17:18:42.797Z,96807.53
2023-02-23T17:20:46.327Z,96803.22
2023-02-23T17:22:50.408Z,96814.59
2023-02-23T17:24:54.257Z,96815.63
2023-02-23T17:26:56.808Z,96813.97
2023-02-23T17:28:59.360Z,96819.28
2023-02-23T17:31:02.938Z,96818.50
2023-02-23T17:33:06.732Z,96816.69
2023-02-23T17:35:10.068Z,96822.75
2023-02-23T17:37:12.604Z,96818.44
2023-02-23T17:39:16.727Z,96820.28
2023-02-23T17:41:21.236Z,96825.41
2023-02-23T17:43:24.244Z,96822.81
2023-02-23T17:45:28.382Z,96827.22
2023-02-23T17:47:32.290Z,96823.75
2023-02-23T17:49:34.909Z,96831.66
2023-02-23T17:51:37.506Z,96828.09
2023-02-23T17:53:41.099Z,96829.13
2023-02-23T17:55:43.676Z,96833.50
2023-02-23T17:57:47.928Z,96830.97
2023-02-23T17:59:50.537Z,96836.19
2023-02-23T18:01:53.139Z,96840.56
2023-02-23T18:03:58.400Z,96843.25
2023-02-23T18:06:01.553Z,96844.97
2023-02-23T18:08:04.140Z,96846.88
2023-02-23T18:10:07.693Z,96846.88
2023-02-23T18:12:10.633Z,96852.09
2023-02-23T18:14:14.604Z,96849.47
2023-02-23T18:16:17.176Z,96852.09
2023-02-23T18:18:19.802Z,96851.16
2023-02-23T18:20:22.878Z,96860.75
2023-02-23T18:22:25.398Z,96857.31
2023-02-23T18:24:30.888Z,96852.00
2023-02-23T18:26:33.568Z,96851.25
2023-02-23T18:28:37.190Z,96854.84
2023-02-23T18:30:41.618Z,96858.31
2023-02-23T18:32:44.224Z,96858.38
2023-02-23T18:34:46.852Z,96855.75
2023-02-23T18:36:49.995Z,96855.84
2023-02-23T18:38:52.998Z,96853.22
2023-02-23T18:40:55.543Z,96854.13
2023-02-23T18:42:58.913Z,96848.16
2023-02-23T18:45:01.485Z,96845.56
2023-02-23T18:47:05.409Z,96847.47
2023-02-23T18:49:08.418Z,96840.69
2023-02-23T18:51:14.077Z,96837.22
2023-02-23T18:53:16.611Z,96840.78
2023-02-23T18:55:20.088Z,96840.78
2023-02-23T18:57:24.449Z,96845.13
2023-02-23T18:59:28.039Z,96838.25
2023-02-23T19:01:33.241Z,96846.16
2023-02-23T19:03:37.262Z,96844.44
2023-02-23T19:05:44.754Z,96841.91
2023-02-23T19:07:47.331Z,96843.59
2023-02-23T19:09:51.793Z,96840.16
2023-02-23T19:11:54.576Z,96837.66
2023-02-23T19:13:58.524Z,96844.69
2023-02-23T19:16:04.189Z,96835.13
2023-02-23T19:18:06.972Z,96844.78
2023-02-23T19:20:15.013Z,96846.34
2023-02-23T19:22:17.953Z,96846.44
2023-02-23T19:24:21.034Z,96838.69
2023-02-23T19:26:23.594Z,96839.19
2023-02-23T19:28:29.280Z,96836.03
2023-02-23T19:30:31.857Z,96836.31
2023-02-23T19:32:34.519Z,96834.84
2023-02-23T19:34:40.013Z,96825.25
2023-02-23T19:36:46.322Z,96831.38
2023-02-23T19:38:49.296Z,96829.63
2023-02-23T19:40:51.830Z,96831.31
2023-02-23T19:42:55.674Z,96828.69
2023-02-23T19:44:58.241Z,96832.25
2023-02-23T19:47:00.884Z,96832.28
2023-02-23T19:49:04.386Z,96838.44
2023-02-23T19:51:11.736Z,96840.13
2023-02-23T19:53:16.114Z,96838.50
2023-02-23T19:55:20.437Z,96839.56
2023-02-23T19:57:23.199Z,96838.03
2023-02-23T19:59:25.997Z,96837.19
2023-02-23T20:01:29.854Z,96840.66
2023-02-23T20:03:32.821Z,96834.66
2023-02-23T20:05:42.185Z,96838.16
2023-02-23T20:07:44.803Z,96846.91
2023-02-23T20:09:48.800Z,96835.63
2023-02-23T20:11:51.376Z,96837.19
2023-02-23T20:13:57.461Z,96837.38
2023-02-23T20:16:03.368Z,96840.97
2023-02-23T20:18:07.213Z,96836.63
2023-02-23T20:20:12.059Z,96841.13
2023-02-23T20:22:14.619Z,96846.53
2023-02-23T20:24:17.754Z,96838.03
2023-02-23T20:26:24.067Z,96843.59
2023-02-23T20:28:26.815Z,96848.66
2023-02-23T20:30:29.421Z,96855.22
2023-02-23T20:32:32.051Z,96850.97
2023-02-23T20:34:35.916Z,96848.03
2023-02-23T20:36:39.974Z,96845.81
2023-02-23T20:38:42.555Z,96841.00
2023-02-23T20:40:45.472Z,96849.53
2023-02-23T20:42:51.962Z,96843.81
2023-02-23T20:44:54.587Z,96849.22
2023-02-23T20:46:57.231Z,96842.50
2023-02-23T20:49:00.369Z,96846.31
2023-02-23T20:51:03.143Z,96835.16
2023-02-23T20:53:08.278Z,96840.16
2023-02-23T20:55:11.426Z,96844.56
2023-02-23T20:57:13.948Z,96839.00
2023-02-23T20:59:20.436Z,96842.00
2023-02-23T21:01:26.079Z,96842.84
2023-02-23T21:03:29.106Z,96843.78
2023-02-23T21:05:38.183Z,96838.25
2023-02-23T21:07:42.026Z,96843.97
2023-02-23T21:09:45.254Z,96834.06
2023-02-23T21:11:48.734Z,96836.88
2023-02-23T21:13:51.515Z,96834.19
2023-02-23T21:16:01.074Z,96837.81
2023-02-23T21:18:04.021Z,96831.09
2023-02-23T21:20:09.675Z,96833.03
2023-02-23T21:22:16.182Z,96835.63
2023-02-23T21:24:20.867Z,96831.59
2023-02-23T21:26:23.515Z,96835.06
2023-02-23T21:28:26.033Z,96826.97
2023-02-23T21:30:29.326Z,96833.91
2023-02-23T21:32:35.264Z,96827.13
2023-02-23T21:34:38.410Z,96830.13
2023-02-23T21:36:40.952Z,96831.81
2023-02-23T21:38:45.293Z,96824.38
2023-02-23T21:40:47.825Z,96828.75
2023-02-23T21:42:51.429Z,96828.78
2023-02-23T21:44:54.116Z,96833.56
2023-02-23T21:46:56.620Z,96832.25
2023-02-23T21:49:03.069Z,96824.63
2023-02-23T21:51:07.224Z,96833.34
2023-02-23T21:53:10.256Z,96817.91
2023-02-23T21:55:21.476Z,96824.88
2023-02-23T21:57:26.172Z,96826.75
2023-02-23T21:59:28.763Z,96823.31
2023-02-23T22:01:34.477Z,96818.03
2023-02-23T22:03:37.085Z,96814.59
2023-02-23T22:05:41.215Z,96816.16
2023-02-23T22:07:49.729Z,96822.31
2023-02-23T22:09:52.262Z,96817.19
2023-02-23T22:11:54.804Z,96818.03
2023-02-23T22:13:59.722Z,96823.06
2023-02-23T22:16:02.280Z,96815.19
2023-02-23T22:18:04.887Z,96811.63
2023-02-23T22:20:08.408Z,96812.59
2023-02-23T22:22:12.692Z,96816.13
2023-02-23T22:24:16.166Z,96813.97
2023-02-23T22:26:18.694Z,96818.66
2023-02-23T22:28:21.320Z,96816.31
2023-02-23T22:30:23.859Z,96819.06
2023-02-23T22:32:27.743Z,96822.59
2023-02-23T22:34:30.459Z,96820.13
2023-02-23T22:36:33.818Z,96821.81
2023-02-23T22:38:38.774Z,96820.06
2023-02-23T22:40:43.339Z,96821.72
2023-02-23T22:42:48.985Z,96817.31
2023-02-23T22:44:51.729Z,96812.91
2023-02-23T22:46:54.236Z,96817.13
2023-02-23T22:48:56.857Z,96801.59
2023-02-23T22:50:59.902Z,96814.59
2023-02-23T22:53:03.066Z,96804.31
2023-02-23T22:55:07.918Z,96806.84
2023-02-23T22:57:10.560Z,96798.69
2023-02-23T22:59:17.367Z,96791.75
2023-02-23T23:01:20.500Z,96798.56
2023-02-23T23:03:23.223Z,96792.09
2023-02-23T23:05:25.803Z,96790.09
2023-02-23T23:07:28.617Z,96783.06
2023-02-23T23:09:31.199Z,96779.38
2023-02-23T23:11:36.371Z,96782.66
2023-02-23T23:13:44.337Z,96781.94
2023-02-23T23:15:47.644Z,96776.13
2023-02-23T23:17:50.179Z,96781.44
2023-02-23T23:19:52.715Z,96774.50
2023-02-23T23:21:56.262Z,96774.44
2023-02-23T23:24:00.859Z,96781.38
2023-02-23T23:26:03.390Z,96777.81
2023-02-23T23:28:07.282Z,96779.41
2023-02-23T23:30:12.283Z,96774.97
2023-02-23T23:32:18.149Z,96771.53
2023-02-23T23:34:21.851Z,96767.94
2023-02-23T23:36:26.218Z,96760.06
2023-02-23T23:38:28.740Z,96764.34
2023-02-23T23:40:35.613Z,96763.91
2023-02-23T23:42:38.968Z,96767.47
2023-02-23T23:44:43.002Z,96770.91
2023-02-23T23:46:47.400Z,96764.19
2023-02-23T23:48:54.201Z,96755.69
2023-02-23T23:50:57.375Z,96759.84
2023-02-23T23:52:59.969Z,96756.75
2023-02-23T23:55:03.950Z,96758.59
2023-02-23T23:57:07.106Z,96749.09
2023-02-23T23:59:11.664Z,96757.75
